KSTL/STL METAR and TAF weather

Enter ICAO airport designator
Station Type Date Time Source
KSTL METAR 2020/01/23 05:51 UTC NOAA

KSTL 230551Z 16009KT 8SM -FZRA BKN011 OVC035 00/M02 A3009 RMK AO2 SLP199 P0002 60007 T00001022 10017 20000 400281044 56008


Station Type Date Time Source
KSTL Decoded METAR 2020/01/23 05:51 UTC NOAA

LAMBERT-ST LOUIS INTERNATIONAL AIRPORT , MO, United States (KSTL) 38-45N 90-22W 171M
Jan 23, 2020 - 12:51 AM EST / 2020.01.23 0551 UTC
Wind: from the SSE (160 degrees) at 10 MPH (9 KT):0
Visibility: 8 mile(s):0
Sky conditions: overcast
Weather: light freezing rain
Precipitation last hour: 0.02 inches
Temperature: 32.0 F (0.0 C)
Windchill: 23 F (-5 C):1
Dew Point: 28.0 F (-2.2 C)
Relative Humidity: 85%
Pressure (altimeter): 30.09 in. Hg (1018 hPa)
Pressure tendency: 0.02 inches (0.8 hPa) lower than three hours ago
ob: KSTL 230551Z 16009KT 8SM -FZRA BKN011 OVC035 00/M02 A3009 RMK AO2 SLP199 P0002 60007 T00001022 10017 20000 400281044 56008
cycle: 6

Station Type Date Time Source
KSTL TAF 2020/01/23 06:27 UTC NOAA

TAF KSTL 230525Z 2306/2412 16010KT 6SM -FZRAPL BR OVC012
TEMPO 2306/2308 4SM -FZRAPL BR OVC020
FM230900 16009KT 3SM -RASN BR OVC007
FM231400 15009KT 5SM -RA BR OVC007
FM232200 11006KT 2SM -SN BR OVC003

Example: see airport list